sensor_id;sensor_type;location;lat;lon;timestamp;P1;durP1;ratioP1;P2;durP2;ratioP2
36443;SDS011;24692;45.642;13.806;2024-03-23T00:53:05;5.13;;;3.00;;
36443;SDS011;24692;45.642;13.806;2024-03-23T00:55:31;4.27;;;2.90;;
36443;SDS011;24692;45.642;13.806;2024-03-23T00:57:57;3.67;;;2.93;;
36443;SDS011;24692;45.642;13.806;2024-03-23T01:00:22;3.33;;;2.53;;
36443;SDS011;24692;45.642;13.806;2024-03-23T01:02:48;4.93;;;2.80;;
36443;SDS011;24692;45.642;13.806;2024-03-23T01:05:13;4.47;;;2.90;;
36443;SDS011;24692;45.642;13.806;2024-03-23T01:07:39;4.37;;;2.83;;
36443;SDS011;24692;45.642;13.806;2024-03-23T01:10:05;4.20;;;2.80;;
36443;SDS011;24692;45.642;13.806;2024-03-23T01:12:30;4.00;;;3.10;;
36443;SDS011;24692;45.642;13.806;2024-03-23T01:14:56;3.53;;;2.50;;
36443;SDS011;24692;45.642;13.806;2024-03-23T01:17:22;4.10;;;2.93;;
36443;SDS011;24692;45.642;13.806;2024-03-23T01:19:47;3.97;;;2.70;;
36443;SDS011;24692;45.642;13.806;2024-03-23T01:22:13;4.13;;;2.70;;
36443;SDS011;24692;45.642;13.806;2024-03-23T01:24:38;3.53;;;2.70;;
36443;SDS011;24692;45.642;13.806;2024-03-23T01:27:04;4.73;;;2.87;;
36443;SDS011;24692;45.642;13.806;2024-03-23T01:29:30;3.93;;;2.73;;
36443;SDS011;24692;45.642;13.806;2024-03-23T01:31:55;3.43;;;2.60;;
36443;SDS011;24692;45.642;13.806;2024-03-23T01:34:21;3.77;;;2.80;;
36443;SDS011;24692;45.642;13.806;2024-03-23T01:36:46;4.23;;;2.70;;
36443;SDS011;24692;45.642;13.806;2024-03-23T01:39:12;3.60;;;2.93;;
36443;SDS011;24692;45.642;13.806;2024-03-23T01:41:39;4.90;;;2.80;;
36443;SDS011;24692;45.642;13.806;2024-03-23T01:44:07;4.53;;;2.97;;
36443;SDS011;24692;45.642;13.806;2024-03-23T01:46:33;3.97;;;2.80;;
36443;SDS011;24692;45.642;13.806;2024-03-23T01:49:06;3.80;;;3.03;;
36443;SDS011;24692;45.642;13.806;2024-03-23T01:51:32;3.90;;;2.93;;
36443;SDS011;24692;45.642;13.806;2024-03-23T01:53:59;3.10;;;2.80;;
36443;SDS011;24692;45.642;13.806;2024-03-23T01:56:28;3.70;;;2.90;;
36443;SDS011;24692;45.642;13.806;2024-03-23T01:59:01;4.30;;;2.60;;
36443;SDS011;24692;45.642;13.806;2024-03-23T02:01:30;7.80;;;3.33;;
36443;SDS011;24692;45.642;13.806;2024-03-23T02:03:56;4.07;;;3.07;;
36443;SDS011;24692;45.642;13.806;2024-03-23T02:06:22;5.30;;;3.23;;
36443;SDS011;24692;45.642;13.806;2024-03-23T02:08:49;4.77;;;3.17;;
36443;SDS011;24692;45.642;13.806;2024-03-23T02:11:15;6.90;;;3.37;;
36443;SDS011;24692;45.642;13.806;2024-03-23T02:13:41;4.90;;;3.07;;
36443;SDS011;24692;45.642;13.806;2024-03-23T02:16:06;5.27;;;3.03;;
36443;SDS011;24692;45.642;13.806;2024-03-23T02:18:33;4.60;;;3.33;;
36443;SDS011;24692;45.642;13.806;2024-03-23T02:20:58;5.53;;;3.23;;
36443;SDS011;24692;45.642;13.806;2024-03-23T02:23:24;4.63;;;3.20;;
36443;SDS011;24692;45.642;13.806;2024-03-23T02:25:50;5.00;;;3.07;;
36443;SDS011;24692;45.642;13.806;2024-03-23T02:28:16;4.37;;;3.30;;
36443;SDS011;24692;45.642;13.806;2024-03-23T02:30:42;3.00;;;2.70;;
36443;SDS011;24692;45.642;13.806;2024-03-23T02:33:08;4.33;;;3.50;;
36443;SDS011;24692;45.642;13.806;2024-03-23T02:35:33;3.30;;;3.00;;
36443;SDS011;24692;45.642;13.806;2024-03-23T02:37:59;5.07;;;3.00;;
36443;SDS011;24692;45.642;13.806;2024-03-23T02:40:25;4.47;;;3.40;;
36443;SDS011;24692;45.642;13.806;2024-03-23T02:42:51;5.47;;;3.37;;
36443;SDS011;24692;45.642;13.806;2024-03-23T02:45:17;4.13;;;3.17;;
36443;SDS011;24692;45.642;13.806;2024-03-23T02:47:42;4.10;;;3.23;;
36443;SDS011;24692;45.642;13.806;2024-03-23T02:50:08;6.97;;;3.50;;
36443;SDS011;24692;45.642;13.806;2024-03-23T02:52:34;5.23;;;3.10;;
36443;SDS011;24692;45.642;13.806;2024-03-23T02:55:00;3.53;;;3.10;;
36443;SDS011;24692;45.642;13.806;2024-03-23T02:57:27;5.03;;;3.17;;
36443;SDS011;24692;45.642;13.806;2024-03-23T02:59:52;3.20;;;2.90;;
36443;SDS011;24692;45.642;13.806;2024-03-23T03:02:19;3.77;;;2.90;;
36443;SDS011;24692;45.642;13.806;2024-03-23T03:04:45;3.40;;;3.10;;
36443;SDS011;24692;45.642;13.806;2024-03-23T03:07:11;4.83;;;3.53;;
36443;SDS011;24692;45.642;13.806;2024-03-23T03:09:37;5.27;;;3.43;;
36443;SDS011;24692;45.642;13.806;2024-03-23T03:12:04;4.37;;;3.37;;
36443;SDS011;24692;45.642;13.806;2024-03-23T03:14:30;4.70;;;3.30;;
36443;SDS011;24692;45.642;13.806;2024-03-23T03:16:56;5.57;;;3.30;;
36443;SDS011;24692;45.642;13.806;2024-03-23T03:19:21;3.30;;;2.93;;
36443;SDS011;24692;45.642;13.806;2024-03-23T03:21:47;4.70;;;2.83;;
36443;SDS011;24692;45.642;13.806;2024-03-23T03:24:13;4.23;;;3.10;;
36443;SDS011;24692;45.642;13.806;2024-03-23T03:26:39;3.40;;;3.07;;
36443;SDS011;24692;45.642;13.806;2024-03-23T03:29:04;7.00;;;3.23;;
36443;SDS011;24692;45.642;13.806;2024-03-23T03:31:30;4.07;;;3.63;;
36443;SDS011;24692;45.642;13.806;2024-03-23T03:33:56;6.27;;;3.07;;
36443;SDS011;24692;45.642;13.806;2024-03-23T03:36:21;3.97;;;3.13;;
36443;SDS011;24692;45.642;13.806;2024-03-23T03:38:47;6.13;;;3.30;;
36443;SDS011;24692;45.642;13.806;2024-03-23T03:41:13;3.33;;;3.03;;
36443;SDS011;24692;45.642;13.806;2024-03-23T03:43:38;4.07;;;3.20;;
36443;SDS011;24692;45.642;13.806;2024-03-23T03:46:04;4.77;;;3.37;;
36443;SDS011;24692;45.642;13.806;2024-03-23T03:48:30;4.43;;;3.10;;
36443;SDS011;24692;45.642;13.806;2024-03-23T03:50:55;4.77;;;3.10;;
36443;SDS011;24692;45.642;13.806;2024-03-23T03:53:21;6.17;;;3.20;;
36443;SDS011;24692;45.642;13.806;2024-03-23T03:55:47;3.60;;;2.83;;
36443;SDS011;24692;45.642;13.806;2024-03-23T03:58:12;3.30;;;3.00;;
36443;SDS011;24692;45.642;13.806;2024-03-23T04:00:38;3.50;;;2.93;;
36443;SDS011;24692;45.642;13.806;2024-03-23T04:03:04;4.17;;;3.00;;
36443;SDS011;24692;45.642;13.806;2024-03-23T04:05:30;3.37;;;2.90;;
36443;SDS011;24692;45.642;13.806;2024-03-23T04:07:55;4.37;;;3.07;;
36443;SDS011;24692;45.642;13.806;2024-03-23T04:10:21;3.30;;;2.83;;
36443;SDS011;24692;45.642;13.806;2024-03-23T04:12:47;4.13;;;3.23;;
36443;SDS011;24692;45.642;13.806;2024-03-23T04:15:13;4.13;;;3.00;;
36443;SDS011;24692;45.642;13.806;2024-03-23T04:17:38;3.63;;;2.83;;
36443;SDS011;24692;45.642;13.806;2024-03-23T04:20:05;3.40;;;2.90;;
36443;SDS011;24692;45.642;13.806;2024-03-23T04:22:36;2.70;;;2.50;;
36443;SDS011;24692;45.642;13.806;2024-03-23T04:25:02;3.20;;;2.90;;
36443;SDS011;24692;45.642;13.806;2024-03-23T04:27:32;3.10;;;2.80;;
36443;SDS011;24692;45.642;13.806;2024-03-23T04:29:58;4.47;;;3.10;;
36443;SDS011;24692;45.642;13.806;2024-03-23T04:32:26;4.07;;;3.00;;
36443;SDS011;24692;45.642;13.806;2024-03-23T04:34:51;3.03;;;2.60;;
36443;SDS011;24692;45.642;13.806;2024-03-23T04:37:17;4.80;;;2.97;;
36443;SDS011;24692;45.642;13.806;2024-03-23T04:39:43;3.77;;;3.10;;
36443;SDS011;24692;45.642;13.806;2024-03-23T04:42:08;3.60;;;3.20;;
36443;SDS011;24692;45.642;13.806;2024-03-23T04:44:34;4.90;;;3.07;;
36443;SDS011;24692;45.642;13.806;2024-03-23T04:47:00;3.27;;;2.97;;
36443;SDS011;24692;45.642;13.806;2024-03-23T04:49:26;6.17;;;2.93;;
36443;SDS011;24692;45.642;13.806;2024-03-23T04:51:51;3.97;;;2.90;;
36443;SDS011;24692;45.642;13.806;2024-03-23T04:54:17;5.20;;;3.30;;
36443;SDS011;24692;45.642;13.806;2024-03-23T04:56:42;5.20;;;3.27;;
36443;SDS011;24692;45.642;13.806;2024-03-23T04:59:08;3.90;;;3.40;;
36443;SDS011;24692;45.642;13.806;2024-03-23T05:01:34;4.37;;;3.30;;
36443;SDS011;24692;45.642;13.806;2024-03-23T05:04:00;3.40;;;3.10;;
36443;SDS011;24692;45.642;13.806;2024-03-23T05:06:26;4.27;;;3.23;;
36443;SDS011;24692;45.642;13.806;2024-03-23T05:08:52;3.80;;;3.30;;
36443;SDS011;24692;45.642;13.806;2024-03-23T05:11:18;4.53;;;3.50;;
36443;SDS011;24692;45.642;13.806;2024-03-23T05:13:43;4.30;;;3.40;;
36443;SDS011;24692;45.642;13.806;2024-03-23T05:16:10;4.80;;;3.30;;
36443;SDS011;24692;45.642;13.806;2024-03-23T05:18:35;4.67;;;3.83;;
36443;SDS011;24692;45.642;13.806;2024-03-23T05:21:01;6.70;;;4.90;;
36443;SDS011;24692;45.642;13.806;2024-03-23T05:23:28;8.23;;;4.87;;
36443;SDS011;24692;45.642;13.806;2024-03-23T05:25:54;6.80;;;4.37;;
36443;SDS011;24692;45.642;13.806;2024-03-23T05:28:23;5.50;;;4.10;;
36443;SDS011;24692;45.642;13.806;2024-03-23T05:30:55;6.93;;;4.03;;
36443;SDS011;24692;45.642;13.806;2024-03-23T05:33:22;4.93;;;3.90;;
36443;SDS011;24692;45.642;13.806;2024-03-23T05:35:55;5.07;;;3.90;;
36443;SDS011;24692;45.642;13.806;2024-03-23T05:38:22;5.27;;;4.10;;
36443;SDS011;24692;45.642;13.806;2024-03-23T05:40:57;5.03;;;4.10;;
36443;SDS011;24692;45.642;13.806;2024-03-23T05:43:24;4.73;;;4.20;;
36443;SDS011;24692;45.642;13.806;2024-03-23T05:45:53;4.97;;;4.20;;
36443;SDS011;24692;45.642;13.806;2024-03-23T05:48:20;4.60;;;3.50;;
36443;SDS011;24692;45.642;13.806;2024-03-23T05:50:45;4.50;;;4.10;;
36443;SDS011;24692;45.642;13.806;2024-03-23T05:53:11;4.87;;;4.20;;
36443;SDS011;24692;45.642;13.806;2024-03-23T05:55:38;5.90;;;4.10;;
36443;SDS011;24692;45.642;13.806;2024-03-23T05:58:03;5.67;;;4.00;;
36443;SDS011;24692;45.642;13.806;2024-03-23T06:00:29;4.33;;;3.90;;
36443;SDS011;24692;45.642;13.806;2024-03-23T06:02:54;5.07;;;4.20;;
36443;SDS011;24692;45.642;13.806;2024-03-23T06:05:20;5.97;;;4.17;;
36443;SDS011;24692;45.642;13.806;2024-03-23T06:07:46;5.97;;;3.83;;
36443;SDS011;24692;45.642;13.806;2024-03-23T06:10:11;5.10;;;4.10;;
36443;SDS011;24692;45.642;13.806;2024-03-23T06:12:37;4.60;;;3.67;;
36443;SDS011;24692;45.642;13.806;2024-03-23T06:15:03;5.40;;;3.43;;
36443;SDS011;24692;45.642;13.806;2024-03-23T06:17:29;5.67;;;3.43;;
36443;SDS011;24692;45.642;13.806;2024-03-23T06:19:54;3.70;;;3.40;;
36443;SDS011;24692;45.642;13.806;2024-03-23T06:22:20;3.60;;;3.30;;
36443;SDS011;24692;45.642;13.806;2024-03-23T06:24:45;3.73;;;3.43;;
36443;SDS011;24692;45.642;13.806;2024-03-23T06:27:11;4.63;;;3.10;;
36443;SDS011;24692;45.642;13.806;2024-03-23T06:29:37;3.10;;;2.67;;
36443;SDS011;24692;45.642;13.806;2024-03-23T06:32:02;3.50;;;3.20;;
36443;SDS011;24692;45.642;13.806;2024-03-23T06:34:28;3.47;;;2.70;;
36443;SDS011;24692;45.642;13.806;2024-03-23T06:36:55;2.93;;;2.63;;
36443;SDS011;24692;45.642;13.806;2024-03-23T06:39:20;3.97;;;2.70;;
36443;SDS011;24692;45.642;13.806;2024-03-23T06:41:51;3.17;;;2.67;;
36443;SDS011;24692;45.642;13.806;2024-03-23T06:44:18;3.67;;;2.43;;
36443;SDS011;24692;45.642;13.806;2024-03-23T06:46:44;5.07;;;2.73;;
36443;SDS011;24692;45.642;13.806;2024-03-23T06:49:10;4.33;;;2.23;;
36443;SDS011;24692;45.642;13.806;2024-03-23T06:51:38;2.77;;;2.40;;
36443;SDS011;24692;45.642;13.806;2024-03-23T06:54:04;3.63;;;2.50;;
36443;SDS011;24692;45.642;13.806;2024-03-23T06:56:32;3.00;;;2.47;;
36443;SDS011;24692;45.642;13.806;2024-03-23T06:58:59;3.07;;;2.33;;
36443;SDS011;24692;45.642;13.806;2024-03-23T07:01:25;4.07;;;2.33;;
36443;SDS011;24692;45.642;13.806;2024-03-23T07:03:55;4.03;;;2.63;;
36443;SDS011;24692;45.642;13.806;2024-03-23T07:06:21;2.57;;;2.33;;
36443;SDS011;24692;45.642;13.806;2024-03-23T07:08:48;2.57;;;2.37;;
36443;SDS011;24692;45.642;13.806;2024-03-23T07:11:20;3.03;;;2.43;;
36443;SDS011;24692;45.642;13.806;2024-03-23T07:13:46;3.07;;;2.37;;
36443;SDS011;24692;45.642;13.806;2024-03-23T07:16:15;2.83;;;2.20;;
36443;SDS011;24692;45.642;13.806;2024-03-23T07:18:41;2.90;;;1.97;;
36443;SDS011;24692;45.642;13.806;2024-03-23T07:21:07;3.28;;;2.00;;
36443;SDS011;24692;45.642;13.806;2024-03-23T07:23:33;2.88;;;2.17;;
36443;SDS011;24692;45.642;13.806;2024-03-23T07:25:59;3.08;;;2.05;;
36443;SDS011;24692;45.642;13.806;2024-03-23T07:28:26;2.70;;;1.90;;
36443;SDS011;24692;45.642;13.806;2024-03-23T07:31:06;2.08;;;1.80;;
36443;SDS011;24692;45.642;13.806;2024-03-23T07:33:36;1.83;;;1.73;;
36443;SDS011;24692;45.642;13.806;2024-03-23T07:36:03;2.53;;;2.10;;
36443;SDS011;24692;45.642;13.806;2024-03-23T07:38:29;2.00;;;1.80;;
36443;SDS011;24692;45.642;13.806;2024-03-23T07:41:04;1.98;;;1.75;;
36443;SDS011;24692;45.642;13.806;2024-03-23T07:43:34;1.70;;;1.60;;
36443;SDS011;24692;45.642;13.806;2024-03-23T07:46:01;4.93;;;2.10;;
36443;SDS011;24692;45.642;13.806;2024-03-23T07:48:28;2.30;;;1.95;;
36443;SDS011;24692;45.642;13.806;2024-03-23T07:51:07;2.45;;;1.98;;
36443;SDS011;24692;45.642;13.806;2024-03-23T07:53:39;2.22;;;2.00;;
36443;SDS011;24692;45.642;13.806;2024-03-23T07:58:31;3.55;;;2.20;;
36443;SDS011;24692;45.642;13.806;2024-03-23T08:01:03;3.13;;;2.50;;
36443;SDS011;24692;45.642;13.806;2024-03-23T08:03:34;3.03;;;2.38;;
36443;SDS011;24692;45.642;13.806;2024-03-23T08:08:41;3.22;;;2.20;;
36443;SDS011;24692;45.642;13.806;2024-03-23T08:11:08;2.70;;;2.17;;
36443;SDS011;24692;45.642;13.806;2024-03-23T08:13:35;2.22;;;2.00;;
36443;SDS011;24692;45.642;13.806;2024-03-23T08:16:02;1.83;;;1.65;;
36443;SDS011;24692;45.642;13.806;2024-03-23T08:18:29;2.47;;;2.10;;
36443;SDS011;24692;45.642;13.806;2024-03-23T08:20:56;2.63;;;2.13;;
36443;SDS011;24692;45.642;13.806;2024-03-23T08:23:23;3.08;;;1.90;;
36443;SDS011;24692;45.642;13.806;2024-03-23T08:25:58;2.17;;;1.90;;
36443;SDS011;24692;45.642;13.806;2024-03-23T08:28:25;2.47;;;2.00;;
36443;SDS011;24692;45.642;13.806;2024-03-23T08:30:52;2.20;;;2.00;;
36443;SDS011;24692;45.642;13.806;2024-03-23T08:33:18;3.05;;;2.03;;
36443;SDS011;24692;45.642;13.806;2024-03-23T08:35:52;2.58;;;2.08;;
36443;SDS011;24692;45.642;13.806;2024-03-23T08:38:19;2.05;;;1.80;;
36443;SDS011;24692;45.642;13.806;2024-03-23T08:40:45;2.92;;;2.08;;
36443;SDS011;24692;45.642;13.806;2024-03-23T08:43:10;2.42;;;2.22;;
36443;SDS011;24692;45.642;13.806;2024-03-23T08:45:36;2.50;;;2.20;;
36443;SDS011;24692;45.642;13.806;2024-03-23T08:48:01;2.40;;;2.22;;
36443;SDS011;24692;45.642;13.806;2024-03-23T08:50:27;2.38;;;2.10;;
36443;SDS011;24692;45.642;13.806;2024-03-23T08:52:53;2.25;;;2.05;;
36443;SDS011;24692;45.642;13.806;2024-03-23T08:55:18;3.90;;;2.50;;
36443;SDS011;24692;45.642;13.806;2024-03-23T08:57:44;3.00;;;2.65;;
36443;SDS011;24692;45.642;13.806;2024-03-23T09:00:10;3.35;;;2.50;;
36443;SDS011;24692;45.642;13.806;2024-03-23T09:02:36;2.83;;;2.60;;
36443;SDS011;24692;45.642;13.806;2024-03-23T09:05:02;6.55;;;3.20;;
36443;SDS011;24692;45.642;13.806;2024-03-23T09:07:32;3.58;;;3.00;;
36443;SDS011;24692;45.642;13.806;2024-03-23T09:09:58;3.00;;;2.70;;
36443;SDS011;24692;45.642;13.806;2024-03-23T09:12:24;3.30;;;3.00;;
36443;SDS011;24692;45.642;13.806;2024-03-23T09:14:50;3.88;;;3.30;;
36443;SDS011;24692;45.642;13.806;2024-03-23T09:17:16;5.35;;;3.10;;
36443;SDS011;24692;45.642;13.806;2024-03-23T09:19:43;5.35;;;3.17;;
36443;SDS011;24692;45.642;13.806;2024-03-23T09:22:08;3.47;;;3.10;;
36443;SDS011;24692;45.642;13.806;2024-03-23T09:24:34;3.58;;;3.10;;
36443;SDS011;24692;45.642;13.806;2024-03-23T09:26:59;3.67;;;3.03;;
36443;SDS011;24692;45.642;13.806;2024-03-23T09:29:25;3.50;;;3.20;;
36443;SDS011;24692;45.642;13.806;2024-03-23T09:31:51;4.47;;;3.38;;
36443;SDS011;24692;45.642;13.806;2024-03-23T09:34:16;4.85;;;3.00;;
36443;SDS011;24692;45.642;13.806;2024-03-23T09:36:42;4.22;;;3.63;;
36443;SDS011;24692;45.642;13.806;2024-03-23T09:39:07;5.47;;;3.47;;
36443;SDS011;24692;45.642;13.806;2024-03-23T09:41:34;4.80;;;3.55;;
36443;SDS011;24692;45.642;13.806;2024-03-23T09:44:00;4.13;;;3.72;;
36443;SDS011;24692;45.642;13.806;2024-03-23T09:46:27;4.20;;;3.63;;
36443;SDS011;24692;45.642;13.806;2024-03-23T09:48:53;4.10;;;3.70;;
36443;SDS011;24692;45.642;13.806;2024-03-23T09:51:21;4.25;;;3.15;;
36443;SDS011;24692;45.642;13.806;2024-03-23T09:53:49;3.72;;;3.08;;
36443;SDS011;24692;45.642;13.806;2024-03-23T09:56:16;4.13;;;3.42;;
36443;SDS011;24692;45.642;13.806;2024-03-23T09:58:42;3.67;;;3.13;;
36443;SDS011;24692;45.642;13.806;2024-03-23T10:01:08;3.72;;;3.30;;
36443;SDS011;24692;45.642;13.806;2024-03-23T10:03:46;3.88;;;3.00;;
36443;SDS011;24692;45.642;13.806;2024-03-23T10:06:12;3.70;;;3.20;;
36443;SDS011;24692;45.642;13.806;2024-03-23T10:08:38;3.28;;;2.80;;
36443;SDS011;24692;45.642;13.806;2024-03-23T10:11:13;3.88;;;3.30;;
36443;SDS011;24692;45.642;13.806;2024-03-23T10:13:43;3.85;;;2.70;;
36443;SDS011;24692;45.642;13.806;2024-03-23T10:16:09;3.05;;;2.75;;
36443;SDS011;24692;45.642;13.806;2024-03-23T10:18:39;4.72;;;3.42;;
36443;SDS011;24692;45.642;13.806;2024-03-23T10:23:30;6.60;;;5.88;;
36443;SDS011;24692;45.642;13.806;2024-03-23T10:26:12;8.48;;;6.78;;
36443;SDS011;24692;45.642;13.806;2024-03-23T10:28:51;9.82;;;6.40;;
36443;SDS011;24692;45.642;13.806;2024-03-23T10:31:27;8.05;;;6.45;;
36443;SDS011;24692;45.642;13.806;2024-03-23T10:33:53;6.95;;;5.55;;
36443;SDS011;24692;45.642;13.806;2024-03-23T10:36:22;6.43;;;5.72;;
36443;SDS011;24692;45.642;13.806;2024-03-23T10:38:52;5.18;;;4.68;;
36443;SDS011;24692;45.642;13.806;2024-03-23T10:41:19;6.15;;;4.75;;
36443;SDS011;24692;45.642;13.806;2024-03-23T10:43:45;9.38;;;7.97;;
36443;SDS011;24692;45.642;13.806;2024-03-23T10:46:12;12.80;;;9.07;;
36443;SDS011;24692;45.642;13.806;2024-03-23T10:48:38;11.93;;;9.13;;
36443;SDS011;24692;45.642;13.806;2024-03-23T10:51:05;13.02;;;9.98;;
36443;SDS011;24692;45.642;13.806;2024-03-23T10:53:33;13.27;;;10.70;;
36443;SDS011;24692;45.642;13.806;2024-03-23T10:55:59;14.23;;;10.10;;
36443;SDS011;24692;45.642;13.806;2024-03-23T10:58:36;13.55;;;11.10;;
36443;SDS011;24692;45.642;13.806;2024-03-23T11:01:04;13.73;;;10.50;;
36443;SDS011;24692;45.642;13.806;2024-03-23T11:03:33;14.70;;;11.35;;
36443;SDS011;24692;45.642;13.806;2024-03-23T11:06:01;13.82;;;11.05;;
36443;SDS011;24692;45.642;13.806;2024-03-23T11:13:51;17.35;;;12.10;;
36443;SDS011;24692;45.642;13.806;2024-03-23T11:16:22;15.70;;;12.52;;
36443;SDS011;24692;45.642;13.806;2024-03-23T11:19:34;13.55;;;10.93;;
36443;SDS011;24692;45.642;13.806;2024-03-23T11:21:58;20.15;;;13.52;;
36443;SDS011;24692;45.642;13.806;2024-03-23T11:24:24;17.75;;;12.82;;
36443;SDS011;24692;45.642;13.806;2024-03-23T11:26:50;18.15;;;13.20;;
36443;SDS011;24692;45.642;13.806;2024-03-23T11:29:16;19.17;;;13.32;;
36443;SDS011;24692;45.642;13.806;2024-03-23T11:31:50;17.77;;;13.23;;
36443;SDS011;24692;45.642;13.806;2024-03-23T11:34:17;15.77;;;12.57;;
36443;SDS011;24692;45.642;13.806;2024-03-23T11:36:44;19.27;;;14.23;;
36443;SDS011;24692;45.642;13.806;2024-03-23T11:39:17;18.88;;;14.32;;
36443;SDS011;24692;45.642;13.806;2024-03-23T11:41:47;22.02;;;14.32;;
36443;SDS011;24692;45.642;13.806;2024-03-23T11:44:15;17.13;;;13.43;;
36443;SDS011;24692;45.642;13.806;2024-03-23T11:46:44;19.63;;;14.23;;
36443;SDS011;24692;45.642;13.806;2024-03-23T11:49:20;18.63;;;14.70;;
36443;SDS011;24692;45.642;13.806;2024-03-23T11:51:50;20.45;;;14.35;;
36443;SDS011;24692;45.642;13.806;2024-03-23T11:54:16;19.55;;;15.13;;
36443;SDS011;24692;45.642;13.806;2024-03-23T11:57:07;23.73;;;15.40;;
36443;SDS011;24692;45.642;13.806;2024-03-23T11:59:34;20.17;;;14.40;;
36443;SDS011;24692;45.642;13.806;2024-03-23T12:02:11;18.00;;;13.88;;
36443;SDS011;24692;45.642;13.806;2024-03-23T12:04:40;19.33;;;13.88;;
36443;SDS011;24692;45.642;13.806;2024-03-23T12:07:16;18.25;;;14.07;;
36443;SDS011;24692;45.642;13.806;2024-03-23T12:09:48;17.88;;;13.38;;
36443;SDS011;24692;45.642;13.806;2024-03-23T12:12:31;18.88;;;13.98;;
36443;SDS011;24692;45.642;13.806;2024-03-23T12:15:15;19.02;;;13.60;;
36443;SDS011;24692;45.642;13.806;2024-03-23T12:17:40;16.40;;;12.13;;
36443;SDS011;24692;45.642;13.806;2024-03-23T12:20:06;15.55;;;12.23;;
36443;SDS011;24692;45.642;13.806;2024-03-23T12:22:32;18.90;;;13.73;;
36443;SDS011;24692;45.642;13.806;2024-03-23T12:24:59;16.95;;;13.73;;
36443;SDS011;24692;45.642;13.806;2024-03-23T12:27:25;16.98;;;13.05;;
36443;SDS011;24692;45.642;13.806;2024-03-23T12:29:50;17.40;;;12.68;;
36443;SDS011;24692;45.642;13.806;2024-03-23T12:32:16;14.82;;;11.52;;
36443;SDS011;24692;45.642;13.806;2024-03-23T12:34:41;17.75;;;13.57;;
36443;SDS011;24692;45.642;13.806;2024-03-23T12:37:08;19.52;;;13.77;;
36443;SDS011;24692;45.642;13.806;2024-03-23T12:39:37;17.40;;;13.45;;
36443;SDS011;24692;45.642;13.806;2024-03-23T12:42:03;14.85;;;11.93;;
36443;SDS011;24692;45.642;13.806;2024-03-23T12:44:29;19.45;;;12.38;;
36443;SDS011;24692;45.642;13.806;2024-03-23T12:46:54;19.90;;;11.93;;
36443;SDS011;24692;45.642;13.806;2024-03-23T12:49:20;17.35;;;12.77;;
36443;SDS011;24692;45.642;13.806;2024-03-23T12:51:47;14.32;;;10.95;;
36443;SDS011;24692;45.642;13.806;2024-03-23T12:54:20;15.00;;;11.60;;
36443;SDS011;24692;45.642;13.806;2024-03-23T12:56:46;15.00;;;11.10;;
36443;SDS011;24692;45.642;13.806;2024-03-23T12:59:12;17.00;;;12.20;;
36443;SDS011;24692;45.642;13.806;2024-03-23T13:01:38;14.45;;;11.50;;
36443;SDS011;24692;45.642;13.806;2024-03-23T13:04:04;15.60;;;12.10;;
36443;SDS011;24692;45.642;13.806;2024-03-23T13:06:30;14.80;;;11.10;;
36443;SDS011;24692;45.642;13.806;2024-03-23T13:09:00;15.80;;;11.02;;
36443;SDS011;24692;45.642;13.806;2024-03-23T13:11:26;15.85;;;11.50;;
36443;SDS011;24692;45.642;13.806;2024-03-23T13:13:52;13.00;;;10.57;;
36443;SDS011;24692;45.642;13.806;2024-03-23T13:16:18;17.48;;;11.20;;
36443;SDS011;24692;45.642;13.806;2024-03-23T13:18:43;13.00;;;10.82;;
36443;SDS011;24692;45.642;13.806;2024-03-23T13:21:09;12.43;;;10.05;;
36443;SDS011;24692;45.642;13.806;2024-03-23T13:23:35;16.23;;;10.98;;
36443;SDS011;24692;45.642;13.806;2024-03-23T13:26:03;15.35;;;11.40;;
36443;SDS011;24692;45.642;13.806;2024-03-23T13:28:28;14.52;;;10.70;;
36443;SDS011;24692;45.642;13.806;2024-03-23T13:30:54;11.73;;;9.57;;
36443;SDS011;24692;45.642;13.806;2024-03-23T13:33:22;16.75;;;10.07;;
36443;SDS011;24692;45.642;13.806;2024-03-23T13:35:49;11.80;;;9.98;;
36443;SDS011;24692;45.642;13.806;2024-03-23T13:38:18;15.65;;;10.00;;
36443;SDS011;24692;45.642;13.806;2024-03-23T13:40:51;15.73;;;10.10;;
36443;SDS011;24692;45.642;13.806;2024-03-23T13:43:17;14.77;;;10.30;;
36443;SDS011;24692;45.642;13.806;2024-03-23T13:45:42;15.68;;;9.93;;
36443;SDS011;24692;45.642;13.806;2024-03-23T13:48:08;12.35;;;10.25;;
36443;SDS011;24692;45.642;13.806;2024-03-23T13:50:33;12.07;;;8.95;;
36443;SDS011;24692;45.642;13.806;2024-03-23T13:52:59;13.45;;;10.25;;
36443;SDS011;24692;45.642;13.806;2024-03-23T13:55:25;11.85;;;9.38;;
36443;SDS011;24692;45.642;13.806;2024-03-23T13:57:50;14.90;;;9.38;;
36443;SDS011;24692;45.642;13.806;2024-03-23T14:00:16;11.90;;;9.52;;
36443;SDS011;24692;45.642;13.806;2024-03-23T14:02:43;16.15;;;10.10;;
36443;SDS011;24692;45.642;13.806;2024-03-23T14:05:09;12.98;;;8.95;;
36443;SDS011;24692;45.642;13.806;2024-03-23T14:07:36;10.52;;;8.60;;
36443;SDS011;24692;45.642;13.806;2024-03-23T14:10:05;12.98;;;8.40;;
36443;SDS011;24692;45.642;13.806;2024-03-23T14:12:31;11.85;;;8.65;;
36443;SDS011;24692;45.642;13.806;2024-03-23T14:14:57;8.65;;;7.50;;
36443;SDS011;24692;45.642;13.806;2024-03-23T14:17:23;10.68;;;7.93;;
36443;SDS011;24692;45.642;13.806;2024-03-23T14:19:48;9.75;;;7.22;;
36443;SDS011;24692;45.642;13.806;2024-03-23T14:22:15;9.07;;;7.05;;
36443;SDS011;24692;45.642;13.806;2024-03-23T14:24:44;9.63;;;6.32;;
36443;SDS011;24692;45.642;13.806;2024-03-23T14:27:10;9.70;;;6.75;;
36443;SDS011;24692;45.642;13.806;2024-03-23T14:29:35;8.80;;;5.78;;
36443;SDS011;24692;45.642;13.806;2024-03-23T14:32:01;10.20;;;6.40;;
36443;SDS011;24692;45.642;13.806;2024-03-23T14:34:27;9.10;;;6.55;;
36443;SDS011;24692;45.642;13.806;2024-03-23T14:36:53;8.60;;;5.80;;
36443;SDS011;24692;45.642;13.806;2024-03-23T14:39:22;10.27;;;6.15;;
36443;SDS011;24692;45.642;13.806;2024-03-23T14:41:50;9.18;;;6.00;;
36443;SDS011;24692;45.642;13.806;2024-03-23T14:44:15;8.43;;;5.95;;
36443;SDS011;24692;45.642;13.806;2024-03-23T14:46:41;7.03;;;5.72;;
36443;SDS011;24692;45.642;13.806;2024-03-23T14:49:08;7.85;;;6.20;;
36443;SDS011;24692;45.642;13.806;2024-03-23T14:51:33;9.20;;;5.90;;
36443;SDS011;24692;45.642;13.806;2024-03-23T14:53:59;9.32;;;6.25;;
36443;SDS011;24692;45.642;13.806;2024-03-23T14:56:25;8.68;;;5.80;;
36443;SDS011;24692;45.642;13.806;2024-03-23T14:58:53;7.13;;;5.70;;
36443;SDS011;24692;45.642;13.806;2024-03-23T15:01:20;7.65;;;5.22;;
36443;SDS011;24692;45.642;13.806;2024-03-23T15:03:46;6.50;;;5.45;;
36443;SDS011;24692;45.642;13.806;2024-03-23T15:06:12;6.88;;;5.50;;
36443;SDS011;24692;45.642;13.806;2024-03-23T15:08:38;7.32;;;4.95;;
36443;SDS011;24692;45.642;13.806;2024-03-23T15:11:05;5.40;;;4.45;;
36443;SDS011;24692;45.642;13.806;2024-03-23T15:13:34;6.20;;;4.00;;
36443;SDS011;24692;45.642;13.806;2024-03-23T15:16:00;7.70;;;5.20;;
36443;SDS011;24692;45.642;13.806;2024-03-23T15:18:28;5.05;;;4.35;;
36443;SDS011;24692;45.642;13.806;2024-03-23T15:20:55;6.78;;;4.72;;
36443;SDS011;24692;45.642;13.806;2024-03-23T15:23:21;6.32;;;4.80;;
36443;SDS011;24692;45.642;13.806;2024-03-23T15:25:53;7.13;;;4.47;;
36443;SDS011;24692;45.642;13.806;2024-03-23T15:28:22;7.18;;;4.72;;
36443;SDS011;24692;45.642;13.806;2024-03-23T15:30:48;4.85;;;4.38;;
36443;SDS011;24692;45.642;13.806;2024-03-23T15:33:14;6.57;;;4.18;;